createdAt,value
2023-03-28T00:01:20.708Z,8.62
2023-03-28T00:03:50.172Z,8.59
2023-03-28T00:06:21.329Z,8.58
2023-03-28T00:08:51.380Z,8.55
2023-03-28T00:11:22.707Z,8.52
2023-03-28T00:14:01.221Z,8.49
2023-03-28T00:16:36.302Z,8.43
2023-03-28T00:19:11.904Z,8.41
2023-03-28T00:21:48.344Z,8.39
2023-03-28T00:24:21.631Z,8.37
2023-03-28T00:26:54.727Z,8.37
2023-03-28T00:29:26.264Z,8.33
2023-03-28T00:31:56.814Z,8.28
2023-03-28T00:34:26.764Z,8.26
2023-03-28T00:36:56.368Z,8.23
2023-03-28T00:39:27.932Z,8.18
2023-03-28T00:42:01.714Z,8.15
2023-03-28T00:44:57.975Z,8.13
2023-03-28T00:47:51.885Z,8.11
2023-03-28T00:50:31.250Z,8.08
2023-03-28T00:53:26.592Z,8.03
2023-03-28T00:56:04.743Z,8.02
2023-03-28T00:58:42.228Z,7.98
2023-03-28T01:01:15.951Z,7.96
2023-03-28T01:03:50.066Z,7.95
2023-03-28T01:06:22.062Z,7.92
2023-03-28T01:08:56.119Z,7.90
2023-03-28T01:11:25.814Z,7.87
2023-03-28T01:13:55.949Z,7.84
2023-03-28T01:16:32.162Z,7.80
2023-03-28T01:19:02.890Z,7.77
2023-03-28T01:21:55.011Z,7.74
2023-03-28T01:24:46.038Z,7.71
2023-03-28T01:27:31.117Z,7.66
2023-03-28T01:30:33.885Z,7.58
2023-03-28T01:33:49.512Z,7.50
2023-03-28T01:36:40.720Z,7.39
2023-03-28T01:39:35.777Z,7.35
2023-03-28T01:42:26.223Z,7.30
2023-03-28T01:45:09.202Z,7.25
2023-03-28T01:47:44.306Z,7.18
2023-03-28T01:50:26.120Z,7.12
2023-03-28T01:53:03.584Z,7.07
2023-03-28T01:55:41.612Z,7.04
2023-03-28T01:58:36.573Z,6.99
2023-03-28T02:01:19.835Z,6.96
2023-03-28T02:03:58.330Z,6.93
2023-03-28T02:06:40.021Z,6.87
2023-03-28T02:09:16.734Z,6.81
2023-03-28T02:12:17.372Z,6.75
2023-03-28T02:15:06.159Z,6.70
2023-03-28T02:17:47.473Z,6.64
2023-03-28T02:20:39.972Z,6.56
2023-03-28T02:23:29.788Z,6.50
2023-03-28T02:26:32.173Z,6.43
2023-03-28T02:29:17.052Z,6.36
2023-03-28T02:31:58.136Z,6.29
2023-03-28T02:34:27.598Z,6.20
2023-03-28T02:37:31.732Z,6.13
2023-03-28T02:40:40.824Z,6.07
2023-03-28T02:43:59.626Z,6.00
2023-03-28T02:46:44.282Z,5.93
2023-03-28T02:49:50.844Z,5.88
2023-03-28T02:53:04.140Z,5.84
2023-03-28T02:55:56.577Z,5.78
2023-03-28T02:58:55.062Z,5.73
2023-03-28T03:01:29.402Z,5.71
2023-03-28T03:04:00.831Z,5.68
2023-03-28T03:06:30.290Z,5.65
2023-03-28T03:08:59.773Z,5.62
2023-03-28T03:11:29.676Z,5.59
2023-03-28T03:14:00.547Z,5.55
2023-03-28T03:16:31.948Z,5.52
2023-03-28T03:19:01.700Z,5.49
2023-03-28T03:21:31.158Z,5.46
2023-03-28T03:24:01.015Z,5.43
2023-03-28T03:26:31.051Z,5.38
2023-03-28T03:29:05.010Z,5.33
2023-03-28T03:31:34.732Z,5.30
2023-03-28T03:34:24.341Z,5.26
2023-03-28T03:36:55.918Z,5.23
2023-03-28T03:39:25.400Z,5.20
2023-03-28T03:41:54.954Z,5.18
2023-03-28T03:44:24.435Z,5.16
2023-03-28T03:46:54.766Z,5.15
2023-03-28T03:49:24.598Z,5.15
2023-03-28T03:51:54.772Z,5.15
2023-03-28T03:54:24.294Z,5.14
2023-03-28T03:56:55.820Z,5.13
2023-03-28T03:59:25.514Z,5.12
2023-03-28T04:01:56.330Z,5.13
2023-03-28T04:05:21.104Z,5.15
2023-03-28T04:08:03.606Z,5.15
2023-03-28T04:10:37.694Z,5.14
2023-03-28T04:13:07.671Z,5.14
2023-03-28T04:15:38.039Z,5.13
2023-03-28T04:18:20.675Z,5.12
2023-03-28T04:20:57.508Z,5.10
2023-03-28T04:23:48.538Z,5.10
2023-03-28T04:26:38.278Z,5.10
2023-03-28T04:29:10.608Z,5.10
2023-03-28T04:31:41.431Z,5.12
2023-03-28T04:34:30.347Z,5.12
2023-03-28T04:37:09.191Z,5.12
2023-03-28T04:39:58.491Z,5.13
2023-03-28T04:42:50.859Z,5.14
2023-03-28T04:45:28.162Z,5.14
2023-03-28T04:47:58.079Z,5.14
2023-03-28T04:50:27.939Z,5.15
2023-03-28T04:52:58.504Z,5.16
2023-03-28T04:55:28.755Z,5.18
2023-03-28T04:57:58.862Z,5.21
2023-03-28T05:00:28.421Z,5.24
2023-03-28T05:03:13.877Z,5.27
2023-03-28T05:05:52.942Z,5.29
2023-03-28T05:08:25.905Z,5.32
2023-03-28T05:10:55.585Z,5.31
2023-03-28T05:13:26.095Z,5.34
2023-03-28T05:16:08.061Z,5.37
2023-03-28T05:18:57.238Z,5.39
2023-03-28T05:21:45.641Z,5.40
2023-03-28T05:24:15.738Z,5.40
2023-03-28T05:26:45.198Z,5.43
2023-03-28T05:29:14.787Z,5.46
2023-03-28T05:31:48.309Z,5.47
2023-03-28T05:34:24.440Z,5.48
2023-03-28T05:36:54.064Z,5.49
2023-03-28T05:39:29.518Z,5.49
2023-03-28T05:42:05.089Z,5.48
2023-03-28T05:44:35.534Z,5.48
2023-03-28T05:47:23.760Z,5.46
2023-03-28T05:49:54.923Z,5.47
2023-03-28T05:52:24.790Z,5.45
2023-03-28T05:54:56.318Z,5.44
2023-03-28T05:57:26.254Z,5.42
2023-03-28T05:59:57.599Z,5.41
2023-03-28T06:02:31.705Z,5.41
2023-03-28T06:05:18.024Z,5.41
2023-03-28T06:07:47.740Z,5.41
2023-03-28T06:10:18.460Z,5.38
2023-03-28T06:12:58.113Z,5.35
2023-03-28T06:15:27.612Z,5.35
2023-03-28T06:17:58.425Z,5.34
2023-03-28T06:20:28.220Z,5.31
2023-03-28T06:22:57.933Z,5.25
2023-03-28T06:25:27.831Z,5.18
2023-03-28T06:27:58.524Z,5.14
2023-03-28T06:30:31.420Z,5.08
2023-03-28T06:33:01.694Z,5.05
2023-03-28T06:35:34.510Z,5.00
2023-03-28T06:38:05.736Z,4.94
2023-03-28T06:40:35.790Z,4.91
2023-03-28T06:43:05.254Z,4.82
2023-03-28T06:45:46.720Z,4.76
2023-03-28T06:48:17.409Z,4.71
2023-03-28T06:51:30.294Z,4.68
2023-03-28T06:54:02.916Z,4.64
2023-03-28T06:56:32.636Z,4.60
2023-03-28T06:59:02.252Z,4.52
2023-03-28T07:01:33.537Z,4.48
2023-03-28T07:04:14.348Z,4.47
2023-03-28T07:06:47.161Z,4.48
2023-03-28T07:09:17.560Z,4.48
2023-03-28T07:11:51.581Z,4.49
2023-03-28T07:14:21.091Z,4.48
2023-03-28T07:16:50.947Z,4.49
2023-03-28T07:19:20.946Z,4.48
2023-03-28T07:21:50.930Z,4.49
2023-03-28T07:24:23.355Z,4.48
2023-03-28T07:27:15.326Z,4.48
2023-03-28T07:29:46.342Z,4.43
2023-03-28T07:32:16.952Z,4.38
2023-03-28T07:34:48.027Z,4.34
2023-03-28T07:37:23.356Z,4.37
2023-03-28T07:40:33.881Z,4.37
2023-03-28T07:43:05.215Z,4.30
2023-03-28T07:45:34.704Z,4.37
2023-03-28T07:48:06.521Z,4.34
2023-03-28T07:50:39.618Z,4.27
2023-03-28T07:53:09.347Z,4.31
2023-03-28T07:55:48.480Z,4.37
2023-03-28T07:58:25.583Z,4.42
2023-03-28T08:01:09.065Z,4.45
2023-03-28T08:03:40.299Z,4.47
2023-03-28T08:06:24.231Z,4.44
2023-03-28T08:08:54.399Z,4.44
2023-03-28T08:11:50.896Z,4.44
2023-03-28T08:14:20.892Z,4.43
2023-03-28T08:16:50.997Z,4.40
2023-03-28T08:19:20.622Z,4.41
2023-03-28T08:22:31.042Z,4.47
2023-03-28T08:25:13.027Z,4.53
2023-03-28T08:27:42.733Z,4.58
2023-03-28T08:30:14.602Z,4.64
2023-03-28T08:32:53.865Z,4.68
2023-03-28T08:35:25.116Z,4.71
2023-03-28T08:37:57.516Z,4.72
2023-03-28T08:40:29.472Z,4.72
2023-03-28T08:43:26.714Z,4.75
2023-03-28T08:46:00.188Z,4.79
2023-03-28T08:48:47.603Z,4.82
2023-03-28T08:51:39.373Z,4.78
2023-03-28T08:54:32.528Z,4.74
2023-03-28T08:57:06.369Z,4.69
2023-03-28T09:00:17.289Z,4.71
2023-03-28T09:02:48.696Z,4.77
2023-03-28T09:05:38.119Z,4.77
2023-03-28T09:08:45.558Z,4.75
2023-03-28T09:11:42.519Z,4.77
2023-03-28T09:15:01.782Z,4.68
2023-03-28T09:18:13.274Z,4.52
2023-03-28T09:20:54.691Z,4.50
2023-03-28T09:23:47.841Z,4.49
2023-03-28T09:26:34.656Z,4.61
2023-03-28T09:29:19.802Z,4.64
2023-03-28T09:31:56.570Z,4.70
2023-03-28T09:34:37.116Z,4.63
2023-03-28T09:37:41.564Z,4.56
2023-03-28T09:40:14.524Z,4.45
2023-03-28T09:43:18.800Z,4.51
2023-03-28T09:46:11.603Z,4.47
2023-03-28T09:49:00.001Z,4.44
2023-03-28T09:51:33.550Z,4.47
2023-03-28T09:54:07.976Z,4.46
2023-03-28T09:56:42.364Z,4.54
2023-03-28T09:59:47.086Z,4.63
2023-03-28T10:02:28.593Z,4.77
2023-03-28T10:05:00.631Z,4.82
2023-03-28T10:07:46.289Z,4.86
2023-03-28T10:10:36.485Z,4.99
2023-03-28T10:13:12.130Z,5.12
2023-03-28T10:15:47.325Z,5.19
2023-03-28T10:18:27.697Z,5.28
2023-03-28T10:21:26.773Z,5.36
2023-03-28T10:24:22.151Z,5.46
2023-03-28T10:27:08.618Z,5.57
2023-03-28T10:29:38.796Z,5.64
2023-03-28T10:32:14.082Z,5.70
2023-03-28T10:35:02.899Z,5.79
2023-03-28T10:37:49.990Z,5.88
2023-03-28T10:40:32.842Z,5.94
2023-03-28T10:43:58.011Z,6.04
2023-03-28T10:46:42.051Z,6.09
2023-03-28T10:49:21.023Z,6.08
2023-03-28T10:52:42.466Z,5.95
2023-03-28T10:55:28.827Z,6.00
2023-03-28T10:58:49.594Z,6.16
2023-03-28T11:01:35.526Z,6.28
2023-03-28T11:04:45.839Z,6.42
2023-03-28T11:07:58.882Z,6.36
2023-03-28T11:11:11.560Z,6.23
2023-03-28T11:14:24.063Z,6.34
2023-03-28T11:17:41.687Z,6.60
2023-03-28T11:20:36.779Z,6.77
2023-03-28T11:23:57.003Z,6.85
2023-03-28T11:26:43.416Z,6.84
2023-03-28T11:30:37.128Z,6.71
2023-03-28T11:33:25.056Z,6.56
2023-03-28T11:36:15.320Z,6.52
2023-03-28T11:38:59.134Z,6.55
2023-03-28T11:41:40.761Z,6.52
2023-03-28T11:44:33.805Z,6.46
2023-03-28T11:47:17.509Z,6.47
2023-03-28T11:50:01.651Z,6.45
2023-03-28T11:53:13.885Z,6.51
2023-03-28T11:56:28.301Z,6.59
2023-03-28T11:59:45.062Z,6.54
2023-03-28T12:02:43.008Z,6.56
2023-03-28T12:05:36.780Z,6.57
2023-03-28T12:08:34.125Z,6.64
2023-03-28T12:11:11.403Z,6.68
2023-03-28T12:14:11.042Z,6.65
2023-03-28T12:16:50.778Z,6.62
2023-03-28T12:19:38.232Z,6.54
2023-03-28T12:22:40.736Z,6.48
2023-03-28T12:25:35.455Z,6.41
2023-03-28T12:28:43.986Z,6.43
2023-03-28T12:31:53.638Z,6.41
2023-03-28T12:34:47.250Z,6.47
2023-03-28T12:38:02.659Z,6.52
2023-03-28T12:41:00.628Z,6.65
2023-03-28T12:43:44.047Z,6.75
2023-03-28T12:46:28.493Z,6.81
2023-03-28T12:49:05.786Z,6.87
2023-03-28T12:51:53.006Z,6.87
2023-03-28T12:54:54.771Z,6.89
2023-03-28T12:57:48.939Z,6.93
2023-03-28T13:00:57.154Z,6.92
2023-03-28T13:04:56.637Z,6.85
2023-03-28T13:08:13.867Z,6.84
2023-03-28T13:11:25.599Z,6.89
2023-03-28T13:14:34.902Z,6.89
2023-03-28T13:17:23.550Z,6.91
2023-03-28T13:20:13.391Z,6.90
2023-03-28T13:23:21.517Z,6.86
2023-03-28T13:26:03.687Z,6.87
2023-03-28T13:28:34.920Z,6.85
2023-03-28T13:31:11.905Z,6.85
2023-03-28T13:34:00.100Z,6.85
2023-03-28T13:36:35.612Z,6.83
2023-03-28T13:39:38.972Z,6.83
2023-03-28T13:42:30.505Z,6.86
2023-03-28T13:45:31.661Z,6.86
2023-03-28T13:48:12.723Z,6.91
2023-03-28T13:50:45.683Z,6.91
2023-03-28T13:53:15.911Z,6.95
2023-03-28T13:55:46.287Z,6.96
2023-03-28T13:58:20.179Z,6.98
2023-03-28T14:01:21.463Z,7.01
2023-03-28T14:03:55.042Z,6.99
2023-03-28T14:06:28.637Z,7.02
2023-03-28T14:09:02.542Z,7.07
2023-03-28T14:11:39.090Z,7.13
2023-03-28T14:14:42.198Z,7.13
2023-03-28T14:17:17.689Z,7.04
2023-03-28T14:20:00.312Z,7.07
2023-03-28T14:22:34.092Z,7.09
2023-03-28T14:25:11.927Z,7.11
2023-03-28T14:27:45.581Z,7.08
2023-03-28T14:30:25.991Z,7.14
2023-03-28T14:33:14.398Z,7.13
2023-03-28T14:35:46.301Z,6.98
2023-03-28T14:38:37.172Z,6.96
2023-03-28T14:41:22.658Z,6.96
2023-03-28T14:43:56.972Z,6.97
2023-03-28T14:46:33.093Z,6.97
2023-03-28T14:49:10.568Z,6.96
2023-03-28T14:52:12.134Z,6.94
2023-03-28T14:54:48.055Z,6.90
2023-03-28T14:57:38.569Z,6.83
2023-03-28T15:00:20.478Z,6.81
2023-03-28T15:02:52.779Z,6.79
2023-03-28T15:05:24.811Z,6.72
2023-03-28T15:08:02.532Z,6.68
2023-03-28T15:10:35.206Z,6.63
2023-03-28T15:13:25.580Z,6.62
2023-03-28T15:15:59.144Z,6.61
2023-03-28T15:18:35.517Z,6.62
2023-03-28T15:21:08.227Z,6.68
2023-03-28T15:23:53.745Z,6.73
2023-03-28T15:26:36.524Z,6.72
2023-03-28T15:29:09.117Z,6.46
2023-03-28T15:31:40.998Z,6.16
2023-03-28T15:34:18.661Z,5.91
2023-03-28T15:36:59.640Z,5.66
2023-03-28T15:39:35.364Z,5.57
2023-03-28T15:42:20.278Z,5.51
2023-03-28T15:44:58.891Z,5.52
2023-03-28T15:47:32.530Z,5.53
2023-03-28T15:50:13.588Z,5.56
2023-03-28T15:52:43.948Z,5.59
2023-03-28T15:55:22.313Z,5.61
2023-03-28T15:57:51.767Z,5.64
2023-03-28T16:00:47.338Z,5.67
2023-03-28T16:03:32.805Z,5.70
2023-03-28T16:06:40.430Z,5.70
2023-03-28T16:09:26.262Z,5.72
2023-03-28T16:12:04.516Z,5.73
2023-03-28T16:14:53.011Z,5.73
2023-03-28T16:18:02.132Z,5.75
2023-03-28T16:20:41.329Z,5.75
2023-03-28T16:23:14.622Z,5.76
2023-03-28T16:25:47.615Z,5.78
2023-03-28T16:28:18.826Z,5.79
2023-03-28T16:30:49.899Z,5.80
2023-03-28T16:33:19.888Z,5.80
2023-03-28T16:35:49.882Z,5.81
2023-03-28T16:38:21.905Z,5.81
2023-03-28T16:40:51.368Z,5.81
2023-03-28T16:43:20.864Z,5.80
2023-03-28T16:45:50.776Z,5.79
2023-03-28T16:48:20.441Z,5.79
2023-03-28T16:50:58.865Z,5.79
2023-03-28T16:53:34.492Z,5.80
2023-03-28T16:56:07.581Z,5.81
2023-03-28T16:58:37.218Z,5.79
2023-03-28T17:01:10.831Z,5.78
2023-03-28T17:03:40.712Z,5.78
2023-03-28T17:06:11.653Z,5.77
2023-03-28T17:08:42.722Z,5.76
2023-03-28T17:11:13.158Z,5.73
2023-03-28T17:13:43.168Z,5.71
2023-03-28T17:16:12.849Z,5.69
2023-03-28T17:18:42.560Z,5.67
2023-03-28T17:21:17.501Z,5.66
2023-03-28T17:23:49.555Z,5.63
2023-03-28T17:26:19.139Z,5.59
2023-03-28T17:28:50.922Z,5.58
2023-03-28T17:31:21.360Z,5.57
2023-03-28T17:33:53.268Z,5.55
2023-03-28T17:36:27.354Z,5.57
2023-03-28T17:38:58.997Z,5.53
2023-03-28T17:41:29.016Z,5.50
2023-03-28T17:44:02.363Z,5.47
2023-03-28T17:46:32.324Z,5.47
2023-03-28T17:49:01.957Z,5.46
2023-03-28T17:51:32.064Z,5.47
2023-03-28T17:54:01.793Z,5.47
2023-03-28T17:56:31.515Z,5.47
2023-03-28T17:59:01.364Z,5.48
2023-03-28T18:01:31.369Z,5.47
2023-03-28T18:04:01.935Z,5.48
2023-03-28T18:07:21.111Z,5.47
2023-03-28T18:10:08.585Z,5.46
2023-03-28T18:12:43.179Z,5.46
2023-03-28T18:15:15.675Z,5.47
2023-03-28T18:17:45.534Z,5.47
2023-03-28T18:20:23.084Z,5.47
2023-03-28T18:22:59.962Z,5.46
2023-03-28T18:25:36.742Z,5.47
2023-03-28T18:28:07.953Z,5.47
2023-03-28T18:30:39.006Z,5.47
2023-03-28T18:33:11.008Z,5.48
2023-03-28T18:35:41.542Z,5.48
2023-03-28T18:38:12.648Z,5.50
2023-03-28T18:40:44.620Z,5.50
2023-03-28T18:43:15.877Z,5.50
2023-03-28T18:45:54.198Z,5.49
2023-03-28T18:48:28.728Z,5.48
2023-03-28T18:50:59.258Z,5.48
2023-03-28T18:53:31.483Z,5.48
2023-03-28T18:56:01.812Z,5.49
2023-03-28T18:58:33.020Z,5.49
2023-03-28T19:01:06.021Z,5.50
2023-03-28T19:03:40.626Z,5.51
2023-03-28T19:06:12.897Z,5.50
2023-03-28T19:08:44.102Z,5.49
2023-03-28T19:11:16.968Z,5.48
2023-03-28T19:13:51.185Z,5.47
2023-03-28T19:16:22.955Z,5.47
2023-03-28T19:18:53.016Z,5.47
2023-03-28T19:21:22.743Z,5.48
2023-03-28T19:23:52.829Z,5.48
2023-03-28T19:26:23.230Z,5.49
2023-03-28T19:28:53.702Z,5.50
2023-03-28T19:31:24.842Z,5.49
2023-03-28T19:33:54.655Z,5.48
2023-03-28T19:36:24.759Z,5.49
2023-03-28T19:38:54.436Z,5.48
2023-03-28T19:41:28.564Z,5.47
2023-03-28T19:44:06.597Z,5.45
2023-03-28T19:46:38.731Z,5.39
2023-03-28T19:49:09.156Z,5.37
2023-03-28T19:51:39.499Z,5.36
2023-03-28T19:54:09.013Z,5.33
2023-03-28T19:56:39.280Z,5.33
2023-03-28T19:59:09.673Z,5.33
2023-03-28T20:01:40.842Z,5.28
2023-03-28T20:04:13.928Z,5.21
2023-03-28T20:06:45.540Z,5.15
2023-03-28T20:09:17.581Z,5.12
2023-03-28T20:11:47.048Z,5.05
2023-03-28T20:14:20.245Z,5.00
2023-03-28T20:16:49.959Z,4.96
2023-03-28T20:19:20.164Z,4.95
2023-03-28T20:21:49.728Z,4.95
2023-03-28T20:24:19.708Z,4.92
2023-03-28T20:26:49.155Z,4.87
2023-03-28T20:29:20.091Z,4.82
2023-03-28T20:31:49.798Z,4.81
2023-03-28T20:34:19.460Z,4.77
2023-03-28T20:36:49.971Z,4.76
2023-03-28T20:39:19.463Z,4.73
2023-03-28T20:41:49.145Z,4.69
2023-03-28T20:44:20.227Z,4.68
2023-03-28T20:46:49.901Z,4.65
2023-03-28T20:49:20.541Z,4.62
2023-03-28T20:51:50.425Z,4.61
2023-03-28T20:54:21.932Z,4.59
2023-03-28T20:56:51.496Z,4.56
2023-03-28T20:59:22.815Z,4.55
2023-03-28T21:01:52.333Z,4.55
2023-03-28T21:04:22.441Z,4.53
2023-03-28T21:06:52.228Z,4.51
2023-03-28T21:09:21.928Z,4.51
2023-03-28T21:11:51.772Z,4.49
2023-03-28T21:14:21.568Z,4.45
2023-03-28T21:16:51.828Z,4.42
2023-03-28T21:19:21.680Z,4.36
2023-03-28T21:21:52.478Z,4.33
2023-03-28T21:24:21.846Z,4.32
2023-03-28T21:26:51.389Z,4.32
2023-03-28T21:29:21.087Z,4.23
2023-03-28T21:31:50.728Z,4.22
2023-03-28T21:34:33.102Z,4.23
2023-03-28T21:37:06.059Z,4.19
2023-03-28T21:39:35.497Z,4.17
2023-03-28T21:42:05.993Z,4.18
2023-03-28T21:44:35.531Z,4.17
2023-03-28T21:47:05.145Z,4.17
2023-03-28T21:49:40.879Z,4.15
2023-03-28T21:52:10.487Z,4.15
2023-03-28T21:54:40.122Z,4.13
2023-03-28T21:57:09.541Z,4.13
2023-03-28T21:59:41.239Z,4.15
2023-03-28T22:02:10.948Z,4.12
2023-03-28T22:04:41.351Z,4.08
2023-03-28T22:07:11.077Z,4.07
2023-03-28T22:09:43.439Z,4.09
2023-03-28T22:12:18.914Z,4.09
2023-03-28T22:14:48.365Z,4.11
2023-03-28T22:17:17.994Z,4.09
2023-03-28T22:19:47.610Z,4.06
2023-03-28T22:22:18.010Z,4.06
2023-03-28T22:24:47.477Z,4.01
2023-03-28T22:27:18.130Z,4.00
2023-03-28T22:29:47.674Z,3.95
2023-03-28T22:32:17.281Z,3.91
2023-03-28T22:34:48.230Z,3.87
2023-03-28T22:37:17.771Z,3.85
2023-03-28T22:39:47.784Z,3.84
2023-03-28T22:42:17.950Z,3.85
2023-03-28T22:44:50.775Z,3.86
2023-03-28T22:47:20.412Z,3.86
2023-03-28T22:49:53.999Z,3.86
2023-03-28T22:52:26.155Z,3.87
2023-03-28T22:54:55.862Z,3.88
2023-03-28T22:57:25.628Z,3.88
2023-03-28T22:59:56.395Z,3.87
2023-03-28T23:02:25.880Z,3.86
2023-03-28T23:04:56.083Z,3.81
2023-03-28T23:07:25.353Z,3.77
2023-03-28T23:09:55.127Z,3.74
2023-03-28T23:12:24.462Z,3.67
2023-03-28T23:14:55.395Z,3.63
2023-03-28T23:17:26.814Z,3.58
2023-03-28T23:19:57.386Z,3.48
2023-03-28T23:22:26.911Z,3.41
2023-03-28T23:24:56.435Z,3.33
2023-03-28T23:27:25.903Z,3.27
2023-03-28T23:29:57.552Z,3.20
2023-03-28T23:32:29.215Z,3.14
2023-03-28T23:34:58.737Z,3.08
2023-03-28T23:37:28.620Z,3.04
2023-03-28T23:39:58.141Z,3.00
2023-03-28T23:42:27.415Z,2.98
2023-03-28T23:44:56.866Z,2.94
2023-03-28T23:47:26.286Z,2.91
2023-03-28T23:49:55.970Z,2.80
2023-03-28T23:52:25.464Z,2.81
2023-03-28T23:54:54.950Z,2.79
2023-03-28T23:57:25.364Z,2.73
2023-03-28T23:59:57.990Z,2.70
